Time;durP1;ratioP1;P1;durP2;ratioP2;P2;SDS_P1;SDS_P2;PMS_P1;PMS_P2;Temp;Humidity;BMP_temperature;BMP_pressure;BME280_temperature;BME280_humidity;BME280_pressure;Samples;Min_cycle;Max_cycle;Signal;HPM_P1;HPM_P2
2023/12/23 10:10:03;;;;;;;1.98;0.95;;;;;;;21.26;43.12;95216.06;10437932;27;60605;-73
2023/12/23 10:20:32;;;;;;;7.32;1.25;;;;;;;-146.19;100.00;65364.44;20935504;27;20409;-73
2023/12/23 10:37:13;;;;;;;5.90;1.15;;;;;;;19.87;44.95;95187.00;21130929;27;78641;-56
2023/12/23 10:47:33;;;;;;;10.05;1.17;;;;;;;19.72;45.46;95166.34;21030668;28;20048;-57
2023/12/23 10:57:55;;;;;;;3.72;1.10;;;;;;;19.80;45.58;95159.09;21015824;28;20044;-55
2023/12/23 11:08:18;;;;;;;3.15;0.63;;;;;;;19.46;39.90;95138.16;21008471;28;20100;-57
2023/12/23 11:18:39;;;;;;;2.60;0.70;;;;;;;18.66;42.57;95138.00;21012202;28;20055;-54
2023/12/23 11:29:03;;;;;;;2.45;0.70;;;;;;;19.29;45.98;95111.69;20992281;28;20052;-55
2023/12/23 11:39:24;;;;;;;4.80;0.95;;;;;;;19.42;49.04;95091.41;20988523;28;20045;-56
2023/12/23 11:49:44;;;;;;;2.00;1.00;;;;;;;19.54;50.11;95087.72;20925803;28;20056;-56
2023/12/23 12:00:05;;;;;;;5.75;0.93;;;;;;;19.60;51.09;95072.78;20932106;28;20139;-55
2023/12/23 12:10:25;;;;;;;5.95;0.82;;;;;;;19.64;50.65;95062.00;20939689;28;20044;-56
2023/12/23 12:20:45;;;;;;;4.38;0.80;;;;;;;19.69;47.91;95057.06;20952018;28;20051;-57
2023/12/23 12:31:09;;;;;;;2.33;0.70;;;;;;;19.77;49.20;95063.34;20926961;28;20529;-54
2023/12/23 12:41:29;;;;;;;7.10;1.58;;;;;;;19.85;50.87;95083.91;20932880;28;20068;-55
2023/12/23 12:51:52;;;;;;;15.25;3.72;;;;;;;19.94;52.85;95097.16;20938171;28;20094;-53
2023/12/23 13:02:12;;;;;;;12.52;3.10;;;;;;;20.01;53.77;95115.38;20926135;28;20055;-55
2023/12/23 13:12:32;;;;;;;11.65;2.50;;;;;;;20.09;52.33;95154.84;20916963;28;20055;-49
2023/12/23 13:22:51;;;;;;;11.85;2.05;;;;;;;20.12;52.06;95181.16;20917829;28;20455;-47
2023/12/23 13:33:11;;;;;;;5.38;1.95;;;;;;;20.26;51.89;95197.56;20929604;28;20525;-53
2023/12/23 13:43:31;;;;;;;6.70;2.00;;;;;;;20.28;51.58;95214.19;20926221;28;20059;-54
2023/12/23 13:53:50;;;;;;;5.35;1.83;;;;;;;20.31;51.47;95239.75;20916013;28;20504;-55
2023/12/23 14:04:09;;;;;;;8.98;1.90;;;;;;;20.32;51.27;95252.13;20913010;28;20733;-58
2023/12/23 14:14:29;;;;;;;5.63;1.88;;;;;;;20.28;52.02;95281.03;20925472;28;20049;-53
2023/12/23 14:24:48;;;;;;;6.78;1.80;;;;;;;20.26;53.40;95315.78;20933961;28;20515;-53
2023/12/23 14:35:11;;;;;;;7.80;1.80;;;;;;;20.31;56.41;95326.28;20923408;28;20053;-54
2023/12/23 14:45:31;;;;;;;4.05;1.20;;;;;;;19.86;40.15;95344.91;20920051;28;20052;-55
2023/12/23 14:55:51;;;;;;;8.43;1.70;;;;;;;19.91;49.01;95368.13;20945185;28;20036;-54
2023/12/23 15:06:11;;;;;;;3.33;1.80;;;;;;;19.96;48.90;95389.47;20924566;28;20090;-62
2023/12/23 15:16:30;;;;;;;4.65;1.45;;;;;;;19.94;49.57;95410.69;20949237;28;20041;-49
2023/12/23 15:26:50;;;;;;;6.45;1.38;;;;;;;19.95;50.20;95407.63;20929477;28;20504;-56
2023/12/23 15:37:11;;;;;;;7.68;1.30;;;;;;;19.92;50.88;95431.88;20937224;28;20079;-47
2023/12/23 15:47:30;;;;;;;3.33;1.10;;;;;;;19.99;52.09;95447.44;20928380;28;20057;-50
2023/12/23 15:57:50;;;;;;;4.05;1.17;;;;;;;20.06;53.93;95474.59;20939297;28;20659;-48
2023/12/23 16:08:10;;;;;;;6.15;1.65;;;;;;;20.07;54.24;95476.16;20934886;28;20055;-53
2023/12/23 16:18:30;;;;;;;4.93;1.15;;;;;;;20.07;54.96;95482.34;20957331;28;20039;-53
2023/12/23 16:28:49;;;;;;;5.43;1.33;;;;;;;20.11;54.69;95493.22;20927909;28;20068;-58
2023/12/23 16:39:09;;;;;;;4.88;1.30;;;;;;;20.13;55.38;95501.75;20948563;28;20508;-47
2023/12/23 16:49:29;;;;;;;2.78;1.63;;;;;;;20.24;56.27;95510.06;20937253;28;20075;-45
2023/12/23 16:59:49;;;;;;;2.65;1.33;;;;;;;20.22;55.66;95521.22;20940384;28;20052;-53
2023/12/23 17:10:09;;;;;;;3.90;1.30;;;;;;;20.19;55.92;95530.06;20926295;28;20053;-55
2023/12/23 17:20:28;;;;;;;3.03;1.27;;;;;;;20.14;55.65;95554.69;20916465;28;20648;-54
2023/12/23 17:30:48;;;;;;;3.20;1.00;;;;;;;20.09;55.52;95557.66;20926176;28;20509;-56
2023/12/23 17:41:09;;;;;;;8.23;1.35;;;;;;;20.03;55.27;95575.31;20932358;28;20102;-49
2023/12/23 17:51:29;;;;;;;5.18;1.20;;;;;;;20.06;60.84;95588.13;20939899;28;20087;-53
2023/12/23 18:01:49;;;;;;;2.22;1.00;;;;;;;20.00;62.09;95600.38;20925561;28;20057;-50
2023/12/23 18:12:09;;;;;;;3.13;1.48;;;;;;;20.06;61.33;95610.53;20913748;28;20057;-57
2023/12/23 18:22:29;;;;;;;2.67;1.20;;;;;;;20.03;60.70;95605.88;20922268;28;20057;-62
2023/12/23 18:32:57;;;;;;;6.28;1.38;;;;;;;20.01;60.15;95600.00;20922388;28;20059;-60
2023/12/23 18:43:20;;;;;;;;;;;;;;;20.04;59.29;95595.81;20926554;28;20056;-55
2023/12/23 18:53:40;;;;;;;4.50;1.20;;;;;;;20.06;58.86;95596.25;20930043;28;19924;-58
2023/12/23 19:04:01;;;;;;;5.90;1.20;;;;;;;20.07;59.38;95606.72;20940507;28;20052;-57
2023/12/23 19:14:34;;;;;;;4.75;1.40;;;;;;;20.08;59.83;95629.13;20930974;28;20075;-64
2023/12/23 19:25:09;;;;;;;5.03;1.40;;;;;;;20.01;58.96;95628.97;20957002;28;20481;-63
2023/12/23 19:35:30;;;;;;;4.53;1.57;;;;;;;20.00;58.98;95639.00;20924620;28;20057;-56
2023/12/23 19:45:51;;;;;;;3.47;1.10;;;;;;;20.00;58.81;95651.75;20938178;28;20053;-50
2023/12/23 19:56:11;;;;;;;2.05;1.10;;;;;;;19.99;58.90;95652.88;20956443;28;20049;-55
2023/12/23 20:06:31;;;;;;;2.13;1.13;;;;;;;20.00;58.96;95659.84;20939024;28;20500;-61
2023/12/23 20:16:50;;;;;;;1.98;1.33;;;;;;;19.70;50.64;95657.66;20936502;28;20048;-56
2023/12/23 20:27:10;;;;;;;2.47;1.10;;;;;;;19.81;56.00;95664.06;20938186;28;20449;-65
2023/12/23 20:37:30;;;;;;;3.13;1.20;;;;;;;19.89;56.52;95667.72;20945579;28;20045;-60
2023/12/23 20:47:50;;;;;;;2.72;1.10;;;;;;;19.89;55.88;95682.00;20929709;28;20455;-54
2023/12/23 20:58:09;;;;;;;2.55;1.05;;;;;;;19.53;53.09;95681.19;20918838;28;20242;-63
2023/12/23 21:08:28;;;;;;;2.78;1.00;;;;;;;19.63;54.77;95690.69;20932076;28;20053;-52
2023/12/23 21:18:48;;;;;;;4.22;2.50;;;;;;;16.84;38.74;95687.03;20924767;28;20049;-47
2023/12/23 21:29:07;;;;;;;17.67;10.20;;;;;;;18.53;47.86;95689.47;20936918;28;20045;-50
2023/12/23 21:39:26;;;;;;;13.82;7.13;;;;;;;19.02;46.73;95675.72;20926938;28;20045;-56
2023/12/23 21:49:46;;;;;;;8.80;5.47;;;;;;;19.11;48.67;95670.94;20913211;28;20056;-57
2023/12/23 22:00:06;;;;;;;10.77;5.40;;;;;;;19.23;49.35;95666.56;20918204;28;20048;-57
2023/12/23 22:10:25;;;;;;;7.93;4.82;;;;;;;19.28;49.96;95664.41;20923357;28;20045;-56
2023/12/23 22:20:44;;;;;;;9.77;4.65;;;;;;;19.26;50.58;95671.28;20916565;28;20481;-57
2023/12/23 22:31:04;;;;;;;5.93;3.85;;;;;;;19.21;51.18;95669.66;21032391;28;20130;-57
2023/12/23 22:41:24;;;;;;;8.48;4.10;;;;;;;19.16;51.47;95662.56;21157197;28;20052;-57
2023/12/23 22:51:43;;;;;;;7.38;3.88;;;;;;;19.12;51.88;95667.09;21148738;28;20043;-51
2023/12/23 23:02:03;;;;;;;6.50;3.75;;;;;;;19.11;52.05;95670.16;21146965;28;20039;-50
2023/12/23 23:12:22;;;;;;;8.10;3.78;;;;;;;19.05;52.37;95660.75;21121743;28;20452;-48
2023/12/23 23:22:42;;;;;;;6.35;3.30;;;;;;;19.02;52.58;95653.38;21115989;28;20052;-47
2023/12/23 23:33:02;;;;;;;4.28;3.03;;;;;;;18.99;52.71;95686.44;21091684;28;20120;-51
2023/12/23 23:43:22;;;;;;;5.03;3.00;;;;;;;18.97;52.80;95694.88;21116095;27;20048;-50
2023/12/23 23:53:41;;;;;;;5.10;2.83;;;;;;;18.95;52.78;95683.63;21120862;27;20059;-49
